Nearby METAR Reports

 

ENCN - Kristiansand/Kje, Norway
Distance from station: N 17km
Oppdatert: 24/06/2024 10:20
Klart
Klart
 Vind fra varies
Vind: varies 7 km/h
Temperatur: 20°C
Duggpunkt: 8°C
Fuktighet: 46%
Barometer: 1018 hPa
Oversikt: Klart
Visibility: greater than 10 km
2024/06/24 08:20 ENCN 240820Z VRB04KT CAVOK 20/08 Q1018
EKSN - Sindal Airport, Denmark
Distance from station: ØSØ 145km
Oppdatert: 30/12/2021 14:50
NOT Current
Mist, Hovedsaklig skyet
Mist, Hovedsaklig skyet
 Vind fra SV
Vind: SV 26 km/h
Temperatur: 7°C
Wind Chill: 3°C
Duggpunkt: 7°C
Fuktighet: 100%
Barometer: 999 hPa
Oversikt: Mist
Clouds: Hovedsaklig skyet
Visibility: 5 km
Cloud details: Delvis skyet 183 m
Hovedsaklig skyet 244 m
2021/12/30 13:50 EKSN 301350Z 23014KT 4500 BR SCT006 BKN008 07/07 Q0999
 
EKYT - Alborg, Denmark
Distance from station: SØ 153km
Oppdatert: 24/06/2024 10:20
Few Clouds
Few Clouds
 Vind fra V
Vind: V 19 km/h
Temperatur: 18°C
Duggpunkt: 12°C
Fuktighet: 68%
Barometer: 1019 hPa
Clouds: Few Clouds
Visibility: 10 km
Cloud details: Few Clouds 2408 m
2024/06/24 08:20 EKYT 240820Z AUTO 26010KT 9999 FEW079/// 18/12 Q1019
ENSN - Skien/Geiterygge, Norway
Distance from station: NØ 153km
Oppdatert: 09/11/2015 09:50
NOT Current
Klart
Klart
 Vind fra SSV
Vind: SSV 19 km/h, Vindkast: 41 km/h
Temperatur: 7°C
Wind Chill: 4°C
Duggpunkt: 3°C
Fuktighet: 76%
Barometer: 1000 hPa
Oversikt: Klart
Visibility: greater than 10 km
2015/11/09 08:50 ENSN 090850Z 20010G22KT 150V240 CAVOK 07/03 Q1000
 
ENZV - Stavanger/Sola(A, Norway
Distance from station: NV 166km
Oppdatert: 24/06/2024 10:20
Klart
Klart
 Vind fra VNV
Vind: VNV 15 km/h
Temperatur: 15°C
Duggpunkt: 9°C
Fuktighet: 68%
Barometer: 1020 hPa
Oversikt: Klart
Visibility: greater than 10 km
2024/06/24 08:20 ENZV 240820Z 30008KT CAVOK 15/09 Q1020 NOSIG
ENNO - Notodden, Norway
Distance from station: NNØ 182km
Oppdatert: 24/06/2024 10:20
Klart
Klart
 Vind fra varies
Vind: varies 4 km/h
Temperatur: 19°C
Duggpunkt: 7°C
Fuktighet: 46%
Barometer: 1018 hPa
Oversikt: Klart
Visibility: greater than 10 km
2024/06/24 08:20 ENNO 240820Z VRB02KT CAVOK 19/07 Q1018
 
ENTO - Torp (civ/Nor-Af, Norway
Distance from station: NØ 183km
Oppdatert: 24/06/2024 10:20
Klart
Klart
 Vind fra N
Vind: N 9 km/h
Temperatur: 19°C
Duggpunkt: 9°C
Fuktighet: 52%
Barometer: 1018 hPa
Oversikt: Klart
Visibility: greater than 10 km
2024/06/24 08:20 ENTO 240820Z 01005KT 330V090 CAVOK 19/09 Q1018 NOSIG
EKKA - Karup (dan-Afb), Denmark
Distance from station: SSØ 209km
Oppdatert: 24/06/2024 10:20
Klart
Klart
 Vind fra V
Vind: V 11 km/h
Temperatur: 17°C
Duggpunkt: 10°C
Fuktighet: 64%
Barometer: 1021 hPa
Clouds: Klart
Visibility: 10 km
2024/06/24 08:20 EKKA 240820Z AUTO 27006KT 240V320 9999 NCD 17/10 Q1021 NOSIG
 
ENHD - Haugesund/Karmoy, Norway
Distance from station: NV 216km
Oppdatert: 24/06/2024 10:20
Klart
Klart
 Vind fra V
Vind: V 9 km/h
Temperatur: 15°C
Duggpunkt: 8°C
Fuktighet: 63%
Barometer: 1020 hPa
Oversikt: Klart
Visibility: greater than 10 km
2024/06/24 08:20 ENHD 240820Z 28005KT CAVOK 15/08 Q1020
ENRY - Rygge (nor-Afb), Norway
Distance from station: NØ 216km
Oppdatert: 24/06/2024 10:20
Klart
Klart
 Vind fra NNV
Vind: NNV 7 km/h
Temperatur: 18°C
Duggpunkt: 8°C
Fuktighet: 52%
Barometer: 1018 hPa
Oversikt: Klart
Visibility: greater than 10 km
2024/06/24 08:20 ENRY 240820Z 34004KT 300V030 CAVOK 18/08 Q1018 NOSIG
 
ESGP - Goteborg/Save (a, Sweden
Distance from station: Ø 230km
Oppdatert: 24/06/2024 10:20
Overskyet
Overskyet
 Vind fra S
Vind: S 9 km/h
Temperatur: 17°C
Duggpunkt: 13°C
Fuktighet: 77%
Barometer: 1018 hPa
Clouds: Overskyet
Visibility: 10 km
Cloud details: Overskyet 366 m
2024/06/24 08:20 ESGP 240820Z AUTO 18005KT 150V230 9999 OVC012/// 17/13 Q1018
EKVJ - Stauning Airport, Denmark
Distance from station: S 233km
Oppdatert: 24/06/2024 09:50
Few Clouds
Few Clouds
 Vind fra V
Vind: V 15 km/h
Temperatur: 16°C
Duggpunkt: 11°C
Fuktighet: 72%
Barometer: 1020 hPa
Clouds: Few Clouds
Visibility: 10 km
Cloud details: Few Clouds 488 m
2024/06/24 07:50 EKVJ 240750Z 28008KT 240V320 9999 FEW016 16/11 Q1020
 
ENSO - Stord/Soerstokke, Norway
Distance from station: NV 246km
Oppdatert: 24/06/2024 10:20
Klart
Klart
 Vind fra SSV
Vind: SSV 7 km/h
Temperatur: 15°C
Duggpunkt: 8°C
Fuktighet: 63%
Barometer: 1020 hPa
Oversikt: Klart
Visibility: greater than 10 km
2024/06/24 08:20 ENSO 240820Z 20004KT CAVOK 15/08 Q1020
EKAH - Tirstrup (civ/Mi, Denmark
Distance from station: SØ 252km
Oppdatert: 24/06/2024 10:20
Few Clouds
Few Clouds
 Vind fra VNV
Vind: VNV 15 km/h
Temperatur: 18°C
Duggpunkt: 11°C
Fuktighet: 64%
Barometer: 1020 hPa
Clouds: Few Clouds
Visibility: 10 km
Cloud details: Few Clouds 427 m
2024/06/24 08:20 EKAH 240820Z AUTO 29008KT 250V320 9999 FEW014/// 18/11 Q1020
 
ESGT - Trollhattan (pvt, Sweden
Distance from station: Ø 255km
Oppdatert: 24/06/2024 10:20
Hovedsaklig skyet
Hovedsaklig skyet
 Vind fra S
Vind: S 13 km/h
Temperatur: 17°C
Duggpunkt: 13°C
Fuktighet: 77%
Barometer: 1018 hPa
Clouds: Hovedsaklig skyet
Visibility: 10 km
Cloud details: Hovedsaklig skyet 366 m
2024/06/24 08:20 ESGT 240820Z 19007KT 160V220 9999 BKN012 17/13 Q1018
ESGG - Goteborg/Landvet, Sweden
Distance from station: Ø 257km
Oppdatert: 24/06/2024 10:20
Few Clouds
Few Clouds
 Vind fra SSV
Vind: SSV 7 km/h
Temperatur: 16°C
Duggpunkt: 12°C
Fuktighet: 77%
Barometer: 1019 hPa
Clouds: Few Clouds
Visibility: 10 km
Cloud details: Few Clouds 427 m
2024/06/24 08:20 ESGG 240820Z 21004KT 170V250 9999 FEW014 16/12 Q1019
 
EKBI - Billund Airport, Denmark
Distance from station: SSØ 269km
Oppdatert: 24/06/2024 10:20
Klart
Klart
 Vind fra V
Vind: V 15 km/h
Temperatur: 17°C
Duggpunkt: 11°C
Fuktighet: 68%
Barometer: 1021 hPa
Clouds: Klart
Visibility: 10 km
2024/06/24 08:20 EKBI 240820Z AUTO 28008KT 240V300 9999 NCD 17/11 Q1021
EKHN - Horns Rev B Heli, Denmark
Distance from station: S 274km
Oppdatert: 09/08/2016 14:20
NOT Current
Few Clouds
Few Clouds
 Vind fra VNV
Vind: VNV 50 km/h, Vindkast: 72 km/h
Temperatur: 14°C
Duggpunkt: 10°C
Fuktighet: 77%
Barometer: 1018 hPa
Clouds: Few Clouds
Visibility: 10 km
Cloud details: Few Clouds 1158 m
Few Clouds 2438 m
2016/08/09 12:20 EKHN 091220Z AUTO 29027G39KT 270V340 9999NDV FEW038/// FEW080/// 14/10 Q1018
 
ESIB - Satenas (swe-Afb, Sweden
Distance from station: Ø 277km
Oppdatert: 24/06/2024 10:20
Hovedsaklig skyet
Hovedsaklig skyet
 Vind fra VSV
Vind: VSV 9 km/h
Temperatur: 16°C
Duggpunkt: 13°C
Fuktighet: 83%
Barometer: 1018 hPa
Clouds: Hovedsaklig skyet
Visibility: 10 km
Cloud details: Hovedsaklig skyet 335 m
2024/06/24 08:20 ESIB 240820Z 24005KT 200V280 9999 BKN011 16/13 Q1018
EKHR - Horns Rev B Heli, Denmark
Distance from station: S 282km
Oppdatert: 04/10/2016 06:20
NOT Current
Klart
Klart
 Vind fra Ø
Vind: Ø 4 km/h
Temperatur: 11°C
Duggpunkt: -49°C
Fuktighet: 0%
Barometer: 1038 hPa
Clouds: Klart
Visibility: 10 km
2016/10/04 04:20 EKHR 040420Z AUTO 08002KT 9999NDV NCD 11/M49 Q1038